This is the latest recevied weather packets stored in our database for station/object AE5HO. If no packets are shown the sender has not sent any weather packets the latest 10 day(s).
| Time | Temp. | Humidity | Pressure | Rain* | Wind** | Luminosity | Snow |
|---|---|---|---|---|---|---|---|
| 1788027401 | 36.11° C | 44% | 1017.3 hPa | 0 mm | - | 49 W/m² | - |
| 1788027097 | 35.56° C | 45% | 1017.6 hPa | 0 mm | - | 53 W/m² | - |
| 1788026797 | 36.11° C | 46% | 1017.5 hPa | 0 mm | - | 194 W/m² | - |
| 1788026492 | 36.11° C | 43% | 1017.7 hPa | 0 mm | - | 104 W/m² | - |
| 1788026192 | 36.67° C | 42% | 1017.6 hPa | 0 mm | - | 125 W/m² | - |
| 1788025891 | 35.56° C | 44% | 1017.8 hPa | 0 mm | - | 75 W/m² | - |
| 1788025591 | 36.11° C | 44% | 1017.5 hPa | 0 mm | - | 56 W/m² | - |
| 1788025290 | 36.11° C | 44% | 1017.8 hPa | 0 mm | - | 119 W/m² | - |
| 1788024985 | 36.11° C | 44% | 1017.8 hPa | 0 mm | - | 119 W/m² | - |
| 1788024680 | 35.56° C | 46% | 1018 hPa | 0 mm | - | 109 W/m² | - |
| 1788024376 | 35.56° C | 46% | 1018 hPa | 0 mm | - | 62 W/m² | - |
| 1788024071 | 35.56° C | 46% | 1018.1 hPa | 0 mm | - | 60 W/m² | - |
| 1788023772 | 35.56° C | 46% | 1018 hPa | 0 mm | - | 524 W/m² | - |
| 1788023467 | 35.56° C | 44% | 1018.1 hPa | 0 mm | - | 492 W/m² | - |
| 1788023162 | 35.56° C | 45% | 1018.2 hPa | 0 mm | - | 542 W/m² | - |
| 1788022857 | 35° C | 45% | 1018.3 hPa | 0 mm | - | 615 W/m² | - |
| 1788022553 | 35.56° C | 47% | 1018.2 hPa | 0 mm | - | 630 W/m² | - |
| 1788022249 | 35.56° C | 46% | 1018.3 hPa | 0 mm | - | 515 W/m² | - |
| 1788021948 | 35.56° C | 49% | 1018.4 hPa | 0 mm | - | 603 W/m² | - |
| 1788021643 | 35.56° C | 49% | 1018.4 hPa | 0 mm | - | 513 W/m² | - |
| 1788021340 | 34.44° C | 50% | 1018.4 hPa | 0 mm | - | 575 W/m² | - |
| 1788021036 | 34.44° C | 50% | 1018.4 hPa | 0 mm | - | 497 W/m² | - |
| 1788020731 | 35° C | 50% | 1018.2 hPa | 0 mm | - | 610 W/m² | - |
| 1788020431 | 35° C | 51% | 1018.5 hPa | 0 mm | - | 576 W/m² | - |
| 1788020128 | 35° C | 50% | 1018.3 hPa | 0 mm | - | 554 W/m² | - |
* Rain latest hour (hover to see other rain measurements)
** Current wind speed in m/s (hover to see current wind gust speed)